createdAt,value
2023-03-26T00:01:55.163Z,73.41
2023-03-26T00:04:25.823Z,73.37
2023-03-26T00:06:54.213Z,73.83
2023-03-26T00:09:21.969Z,74.10
2023-03-26T00:11:49.517Z,74.80
2023-03-26T00:14:17.999Z,74.91
2023-03-26T00:16:53.791Z,74.87
2023-03-26T00:19:22.586Z,75.28
2023-03-26T00:21:51.641Z,74.46
2023-03-26T00:24:19.746Z,75.11
2023-03-26T00:26:53.673Z,75.47
2023-03-26T00:29:22.977Z,75.82
2023-03-26T00:31:51.188Z,76.14
2023-03-26T00:34:19.348Z,76.33
2023-03-26T00:36:47.343Z,76.25
2023-03-26T00:39:15.355Z,76.24
2023-03-26T00:41:43.352Z,73.86
2023-03-26T00:44:10.504Z,73.50
2023-03-26T00:46:38.089Z,75.17
2023-03-26T00:49:05.937Z,75.75
2023-03-26T00:51:34.427Z,77.03
2023-03-26T00:54:02.355Z,78.09
2023-03-26T00:56:30.042Z,79.22
2023-03-26T00:58:57.894Z,80.28
2023-03-26T01:01:29.269Z,80.65
2023-03-26T01:04:08.398Z,79.07
2023-03-26T01:06:36.642Z,79.27
2023-03-26T01:09:16.397Z,81.89
2023-03-26T01:11:43.154Z,83.16
2023-03-26T01:14:34.929Z,82.92
2023-03-26T01:17:02.938Z,83.27
2023-03-26T01:19:38.215Z,82.99
2023-03-26T01:22:09.713Z,82.89
2023-03-26T01:24:38.217Z,82.97
2023-03-26T01:27:12.837Z,82.53
2023-03-26T01:29:48.299Z,82.42
2023-03-26T01:32:53.582Z,82.51
2023-03-26T01:35:39.035Z,82.85
2023-03-26T01:38:27.869Z,82.68
2023-03-26T01:41:07.096Z,82.54
2023-03-26T01:43:45.001Z,82.40
2023-03-26T01:46:12.739Z,82.32
2023-03-26T01:48:44.706Z,82.24
2023-03-26T01:51:12.651Z,82.75
2023-03-26T01:53:42.669Z,82.15
2023-03-26T01:56:12.911Z,82.03
2023-03-26T01:59:05.744Z,82.14
2023-03-26T02:01:46.192Z,82.83
2023-03-26T02:04:34.702Z,83.88
2023-03-26T02:07:12.944Z,84.35
2023-03-26T02:09:45.973Z,84.40
2023-03-26T02:12:14.504Z,84.94
2023-03-26T02:14:43.085Z,85.28
2023-03-26T02:17:11.500Z,85.36
2023-03-26T02:19:42.330Z,84.81
2023-03-26T02:22:15.692Z,82.73
2023-03-26T02:24:44.321Z,81.70
2023-03-26T02:27:12.493Z,83.79
2023-03-26T02:29:39.947Z,84.38
2023-03-26T02:32:08.136Z,84.07
2023-03-26T02:34:37.046Z,85.27
2023-03-26T02:37:06.851Z,87.02
2023-03-26T02:39:34.843Z,88.67
2023-03-26T02:42:03.152Z,88.79
2023-03-26T02:44:31.063Z,87.30
2023-03-26T02:46:59.548Z,86.80
2023-03-26T02:49:27.623Z,86.02
2023-03-26T02:51:56.523Z,84.10
2023-03-26T02:54:24.868Z,84.92
2023-03-26T02:56:52.964Z,83.81
2023-03-26T02:59:20.924Z,83.70
2023-03-26T03:01:48.845Z,84.67
2023-03-26T03:04:20.761Z,86.78
2023-03-26T03:06:53.095Z,85.06
2023-03-26T03:09:21.458Z,83.52
2023-03-26T03:11:49.559Z,85.46
2023-03-26T03:14:17.600Z,86.57
2023-03-26T03:16:45.461Z,86.77
2023-03-26T03:19:13.779Z,87.98
2023-03-26T03:21:42.440Z,89.49
2023-03-26T03:24:11.855Z,90.31
2023-03-26T03:26:41.278Z,90.48
2023-03-26T03:29:09.627Z,90.92
2023-03-26T03:31:37.738Z,90.05
2023-03-26T03:34:05.311Z,90.70
2023-03-26T03:36:33.485Z,89.91
2023-03-26T03:39:02.764Z,90.07
2023-03-26T03:41:31.180Z,89.69
2023-03-26T03:43:59.975Z,91.15
2023-03-26T03:46:27.489Z,91.04
2023-03-26T03:48:55.405Z,90.36
2023-03-26T03:51:23.745Z,87.70
2023-03-26T03:53:52.847Z,87.90
2023-03-26T03:56:24.303Z,87.43
2023-03-26T03:58:52.108Z,85.95
2023-03-26T04:01:23.052Z,86.84
2023-03-26T04:03:51.648Z,87.90
2023-03-26T04:06:20.224Z,88.17
2023-03-26T04:08:48.508Z,89.70
2023-03-26T04:11:16.208Z,90.13
2023-03-26T04:13:44.285Z,91.75
2023-03-26T04:16:12.386Z,91.33
2023-03-26T04:18:40.721Z,90.79
2023-03-26T04:21:08.401Z,89.89
2023-03-26T04:23:36.582Z,88.27
2023-03-26T04:26:07.151Z,87.37
2023-03-26T04:28:42.340Z,86.29
2023-03-26T04:31:11.814Z,87.77
2023-03-26T04:33:42.197Z,88.74
2023-03-26T04:36:10.823Z,89.28
2023-03-26T04:38:41.239Z,89.57
2023-03-26T04:41:11.887Z,89.04
2023-03-26T04:43:42.651Z,87.41
2023-03-26T04:46:10.706Z,87.58
2023-03-26T04:48:38.780Z,88.00
2023-03-26T04:51:07.426Z,89.47
2023-03-26T04:53:35.166Z,89.22
2023-03-26T04:56:24.930Z,89.08
2023-03-26T04:58:57.008Z,87.99
2023-03-26T05:01:28.437Z,85.77
2023-03-26T05:03:57.311Z,89.08
2023-03-26T05:06:26.171Z,92.40
2023-03-26T05:08:54.682Z,94.06
2023-03-26T05:11:22.400Z,94.16
2023-03-26T05:13:50.421Z,93.45
2023-03-26T05:16:17.654Z,90.85
2023-03-26T05:18:46.635Z,89.97
2023-03-26T05:21:14.666Z,91.21
2023-03-26T05:23:42.137Z,92.65
2023-03-26T05:26:11.129Z,92.91
2023-03-26T05:28:39.255Z,92.12
2023-03-26T05:31:08.623Z,91.90
2023-03-26T05:33:36.331Z,91.26
2023-03-26T05:36:05.683Z,90.79
2023-03-26T05:38:33.796Z,90.22
2023-03-26T05:41:02.456Z,88.48
2023-03-26T05:43:30.409Z,90.60
2023-03-26T05:45:58.747Z,90.96
2023-03-26T05:48:27.025Z,91.55
2023-03-26T05:50:56.891Z,91.32
2023-03-26T05:53:24.844Z,91.03
2023-03-26T05:55:59.070Z,90.12
2023-03-26T05:58:27.508Z,89.33
2023-03-26T06:00:59.401Z,88.47
2023-03-26T06:03:27.623Z,87.05
2023-03-26T06:05:55.573Z,83.98
2023-03-26T06:08:23.254Z,82.84
2023-03-26T06:10:53.544Z,80.85
2023-03-26T06:13:21.437Z,79.94
2023-03-26T06:15:49.254Z,79.76
2023-03-26T06:18:17.894Z,77.98
2023-03-26T06:20:45.417Z,75.63
2023-03-26T06:23:13.573Z,73.39
2023-03-26T06:25:41.546Z,73.03
2023-03-26T06:28:09.912Z,69.00
2023-03-26T06:30:38.510Z,68.24
2023-03-26T06:33:06.769Z,65.74
2023-03-26T06:35:34.747Z,64.74
2023-03-26T06:38:02.255Z,63.87
2023-03-26T06:40:30.140Z,63.21
2023-03-26T06:43:08.051Z,62.49
2023-03-26T06:45:38.619Z,61.95
2023-03-26T06:48:08.321Z,61.34
2023-03-26T06:50:36.765Z,61.32
2023-03-26T06:53:07.934Z,60.80
2023-03-26T06:55:36.207Z,59.51
2023-03-26T06:58:04.209Z,59.29
2023-03-26T07:00:31.926Z,59.35
2023-03-26T07:03:00.175Z,59.62
2023-03-26T07:05:28.201Z,60.80
2023-03-26T07:07:56.128Z,60.76
2023-03-26T07:10:23.578Z,60.54
2023-03-26T07:12:51.535Z,60.02
2023-03-26T07:15:19.257Z,59.27
2023-03-26T07:17:47.678Z,59.62
2023-03-26T07:20:15.574Z,59.50
2023-03-26T07:22:44.173Z,59.87
2023-03-26T07:25:16.621Z,60.06
2023-03-26T07:28:02.226Z,59.51
2023-03-26T07:30:47.601Z,59.61
2023-03-26T07:33:19.804Z,59.43
2023-03-26T07:35:47.842Z,60.23
2023-03-26T07:38:30.147Z,60.20
2023-03-26T07:41:04.366Z,60.77
2023-03-26T07:43:50.001Z,61.78
2023-03-26T07:46:18.312Z,62.28
2023-03-26T07:48:50.386Z,62.38
2023-03-26T07:51:18.786Z,62.56
2023-03-26T07:53:47.522Z,63.01
2023-03-26T07:56:22.673Z,62.98
2023-03-26T07:59:13.572Z,63.59
2023-03-26T08:02:13.506Z,63.86
2023-03-26T08:05:05.511Z,63.57
2023-03-26T08:08:16.703Z,63.13
2023-03-26T08:11:14.223Z,62.56
2023-03-26T08:14:03.471Z,61.92
2023-03-26T08:16:48.644Z,61.83
2023-03-26T08:19:33.905Z,60.16
2023-03-26T08:22:28.008Z,59.80
2023-03-26T08:25:22.539Z,59.86
2023-03-26T08:28:03.278Z,60.47
2023-03-26T08:30:32.050Z,60.68
2023-03-26T08:33:11.573Z,60.30
2023-03-26T08:35:42.524Z,59.67
2023-03-26T08:38:11.575Z,59.03
2023-03-26T08:41:19.406Z,58.19
2023-03-26T08:44:41.580Z,57.29
2023-03-26T08:47:08.580Z,57.28
2023-03-26T08:49:52.165Z,57.16
2023-03-26T08:52:33.762Z,55.68
2023-03-26T08:55:16.468Z,55.67
2023-03-26T08:58:09.636Z,54.90
2023-03-26T09:00:55.310Z,55.26
2023-03-26T09:04:06.283Z,54.78
2023-03-26T09:06:59.260Z,54.62
2023-03-26T09:09:52.381Z,54.06
2023-03-26T09:12:39.197Z,52.64
2023-03-26T09:15:05.883Z,51.59
2023-03-26T09:17:58.208Z,51.53
2023-03-26T09:20:45.497Z,50.94
2023-03-26T09:23:21.271Z,50.14
2023-03-26T09:25:48.222Z,49.92
2023-03-26T09:28:52.453Z,50.20
2023-03-26T09:31:38.018Z,48.88
2023-03-26T09:34:07.942Z,48.73
2023-03-26T09:36:57.569Z,48.85
2023-03-26T09:39:47.482Z,48.75
2023-03-26T09:42:39.057Z,48.70
2023-03-26T09:45:21.114Z,48.35
2023-03-26T09:47:50.842Z,48.74
2023-03-26T09:50:42.424Z,48.36
2023-03-26T09:53:45.899Z,47.62
2023-03-26T09:56:44.192Z,47.69
2023-03-26T09:59:23.698Z,47.54
2023-03-26T10:02:12.311Z,47.50
2023-03-26T10:04:45.024Z,47.56
2023-03-26T10:07:37.264Z,47.33
2023-03-26T10:10:40.973Z,46.85
2023-03-26T10:13:14.910Z,46.43
2023-03-26T10:15:57.522Z,46.79
2023-03-26T10:18:39.664Z,46.81
2023-03-26T10:21:31.207Z,46.91
2023-03-26T10:24:10.496Z,45.59
2023-03-26T10:27:08.419Z,45.89
2023-03-26T10:29:58.627Z,45.86
2023-03-26T10:33:13.347Z,45.81
2023-03-26T10:35:42.618Z,45.58
2023-03-26T10:38:38.278Z,45.45
2023-03-26T10:41:17.578Z,45.47
2023-03-26T10:44:15.313Z,45.41
2023-03-26T10:47:08.623Z,45.80
2023-03-26T10:49:49.209Z,46.20
2023-03-26T10:52:24.652Z,46.25
2023-03-26T10:54:55.830Z,46.15
2023-03-26T10:57:53.846Z,46.91
2023-03-26T11:00:27.668Z,47.72
2023-03-26T11:03:09.756Z,46.39
2023-03-26T11:05:45.792Z,44.53
2023-03-26T11:08:36.857Z,42.89
2023-03-26T11:11:12.448Z,39.31
2023-03-26T11:13:47.849Z,37.40
2023-03-26T11:16:32.101Z,34.88
2023-03-26T11:19:21.196Z,34.78
2023-03-26T11:21:54.190Z,34.38
2023-03-26T11:24:29.888Z,33.21
2023-03-26T11:27:15.508Z,32.63
2023-03-26T11:29:46.017Z,33.23
2023-03-26T11:32:28.196Z,33.06
2023-03-26T11:35:06.197Z,33.09
2023-03-26T11:37:41.131Z,32.94
2023-03-26T11:40:24.565Z,32.79
2023-03-26T11:42:53.406Z,33.16
2023-03-26T11:45:22.288Z,33.94
2023-03-26T11:47:52.432Z,34.22
2023-03-26T11:50:22.837Z,34.65
2023-03-26T11:52:50.972Z,34.99
2023-03-26T11:55:18.091Z,34.39
2023-03-26T11:57:52.386Z,34.25
2023-03-26T12:00:21.199Z,35.40
2023-03-26T12:02:55.011Z,34.73
2023-03-26T12:05:29.632Z,33.37
2023-03-26T12:08:01.039Z,32.35
2023-03-26T12:10:34.890Z,32.51
2023-03-26T12:13:24.102Z,32.46
2023-03-26T12:15:51.890Z,32.10
2023-03-26T12:18:26.674Z,30.96
2023-03-26T12:21:13.341Z,29.74
2023-03-26T12:24:28.238Z,28.96
2023-03-26T12:27:21.816Z,29.68
2023-03-26T12:30:20.763Z,30.06
2023-03-26T12:32:48.343Z,31.95
2023-03-26T12:35:29.432Z,33.01
2023-03-26T12:37:57.991Z,33.39
2023-03-26T12:40:36.820Z,34.50
2023-03-26T12:44:49.265Z,35.12
2023-03-26T12:47:15.134Z,36.49
2023-03-26T12:48:43.677Z,37.96
2023-03-26T12:51:20.924Z,38.35
2023-03-26T12:54:05.572Z,38.31
2023-03-26T12:56:40.191Z,38.47
2023-03-26T12:59:25.760Z,39.01
2023-03-26T13:02:25.601Z,39.67
2023-03-26T13:05:06.200Z,40.60
2023-03-26T13:08:11.312Z,40.25
2023-03-26T13:10:46.560Z,40.49
2023-03-26T13:13:40.652Z,41.31
2023-03-26T13:16:13.519Z,41.50
2023-03-26T13:18:52.066Z,41.60
2023-03-26T13:21:57.274Z,41.90
2023-03-26T13:24:45.715Z,42.51
2023-03-26T13:27:35.246Z,43.28
2023-03-26T13:30:24.264Z,44.17
2023-03-26T13:33:10.237Z,43.84
2023-03-26T13:35:41.209Z,43.52
2023-03-26T13:38:35.816Z,43.96
2023-03-26T13:41:10.080Z,43.56
2023-03-26T13:44:07.873Z,44.43
2023-03-26T13:46:40.449Z,44.25
2023-03-26T13:49:27.686Z,44.41
2023-03-26T13:52:03.517Z,44.86
2023-03-26T13:54:49.122Z,45.56
2023-03-26T13:57:32.210Z,45.71
2023-03-26T14:00:06.424Z,45.56
2023-03-26T14:02:43.428Z,45.68
2023-03-26T14:05:40.199Z,45.46
2023-03-26T14:08:12.891Z,44.76
2023-03-26T14:10:45.770Z,44.70
2023-03-26T14:13:24.926Z,44.42
2023-03-26T14:16:16.372Z,44.57
2023-03-26T14:19:05.037Z,45.31
2023-03-26T14:21:53.420Z,45.56
2023-03-26T14:24:42.468Z,46.29
2023-03-26T14:27:37.494Z,46.63
2023-03-26T14:30:48.296Z,47.14
2023-03-26T14:33:34.195Z,48.17
2023-03-26T14:36:36.627Z,48.61
2023-03-26T14:39:46.702Z,50.51
2023-03-26T14:42:29.083Z,53.26
2023-03-26T14:45:13.136Z,53.68
2023-03-26T14:48:17.660Z,56.63
2023-03-26T14:50:46.700Z,57.59
2023-03-26T14:53:22.062Z,59.67
2023-03-26T14:55:54.595Z,61.24
2023-03-26T14:58:28.096Z,66.60
2023-03-26T15:01:07.468Z,64.51
2023-03-26T15:04:02.193Z,62.16
2023-03-26T15:06:29.188Z,61.21
2023-03-26T15:09:21.983Z,59.94
2023-03-26T15:12:14.664Z,59.92
2023-03-26T15:15:03.397Z,65.23
2023-03-26T15:17:45.234Z,68.14
2023-03-26T15:20:36.743Z,70.71
2023-03-26T15:23:47.474Z,68.83
2023-03-26T15:26:50.546Z,69.49
2023-03-26T15:29:38.852Z,72.35
2023-03-26T15:32:05.855Z,77.08
2023-03-26T15:35:02.778Z,82.52
2023-03-26T15:37:48.064Z,89.13
2023-03-26T15:40:40.489Z,94.72
2023-03-26T15:43:18.388Z,100.00
2023-03-26T15:46:05.386Z,100.00
2023-03-26T15:49:12.018Z,100.00
2023-03-26T15:51:46.343Z,100.00
2023-03-26T15:54:35.691Z,100.00
2023-03-26T15:57:27.576Z,100.00
2023-03-26T15:59:57.776Z,100.00
2023-03-26T16:02:41.870Z,100.00
2023-03-26T16:05:50.951Z,100.00
2023-03-26T16:08:46.786Z,100.00
2023-03-26T16:11:16.156Z,100.00
2023-03-26T16:13:44.828Z,100.00
2023-03-26T16:16:21.515Z,100.00
2023-03-26T16:19:09.452Z,100.00
2023-03-26T16:21:38.882Z,100.00
2023-03-26T16:24:05.850Z,100.00
2023-03-26T16:26:50.233Z,100.00
2023-03-26T16:29:28.803Z,100.00
2023-03-26T16:32:15.712Z,100.00
2023-03-26T16:35:12.812Z,100.00
2023-03-26T16:37:50.739Z,100.00
2023-03-26T16:40:26.276Z,100.00
2023-03-26T16:43:19.414Z,100.00
2023-03-26T16:46:05.530Z,100.00
2023-03-26T16:48:59.593Z,100.00
2023-03-26T16:51:44.434Z,100.00
2023-03-26T16:54:26.985Z,100.00
2023-03-26T16:57:10.868Z,100.00
2023-03-26T17:00:06.405Z,100.00
2023-03-26T17:03:03.754Z,100.00
2023-03-26T17:05:42.419Z,100.00
2023-03-26T17:08:36.385Z,100.00
2023-03-26T17:11:26.785Z,100.00
2023-03-26T17:14:30.871Z,100.00
2023-03-26T17:17:20.465Z,100.00
2023-03-26T17:20:25.574Z,100.00
2023-03-26T17:23:14.574Z,100.00
2023-03-26T17:26:20.313Z,100.00
2023-03-26T17:29:01.859Z,100.00
2023-03-26T17:31:45.556Z,100.00
2023-03-26T17:34:46.800Z,100.00
2023-03-26T17:37:16.419Z,100.00
2023-03-26T17:39:49.717Z,100.00
2023-03-26T17:42:18.986Z,100.00
2023-03-26T17:44:59.810Z,100.00
2023-03-26T17:47:27.149Z,100.00
2023-03-26T17:50:22.812Z,100.00
2023-03-26T17:53:01.371Z,100.00
2023-03-26T17:55:35.564Z,100.00
2023-03-26T17:58:04.068Z,100.00
2023-03-26T18:00:57.533Z,100.00
2023-03-26T18:03:34.272Z,100.00
2023-03-26T18:06:07.066Z,100.00
2023-03-26T18:08:47.153Z,100.00
2023-03-26T18:11:50.956Z,100.00
2023-03-26T18:14:55.685Z,100.00
2023-03-26T18:17:24.151Z,100.00
2023-03-26T18:19:57.208Z,100.00
2023-03-26T18:22:26.304Z,100.00
2023-03-26T18:24:54.520Z,100.00
2023-03-26T18:27:23.241Z,100.00
2023-03-26T18:30:02.441Z,100.00
2023-03-26T18:32:31.339Z,100.00
2023-03-26T18:35:00.762Z,100.00
2023-03-26T18:37:33.388Z,100.00
2023-03-26T18:40:10.056Z,100.00
2023-03-26T18:42:36.892Z,100.00
2023-03-26T18:45:21.817Z,100.00
2023-03-26T18:47:51.815Z,100.00
2023-03-26T18:50:22.573Z,100.00
2023-03-26T18:52:51.602Z,100.00
2023-03-26T18:55:19.331Z,100.00
2023-03-26T18:57:46.268Z,100.00
2023-03-26T19:00:22.638Z,100.00
2023-03-26T19:02:51.315Z,100.00
2023-03-26T19:05:18.796Z,100.00
2023-03-26T19:07:48.495Z,100.00
2023-03-26T19:10:18.924Z,100.00
2023-03-26T19:12:46.601Z,100.00
2023-03-26T19:15:15.641Z,100.00
2023-03-26T19:17:47.506Z,100.00
2023-03-26T19:20:20.459Z,100.00
2023-03-26T19:22:49.031Z,100.00
2023-03-26T19:25:24.389Z,100.00
2023-03-26T19:27:51.961Z,100.00
2023-03-26T19:30:40.605Z,100.00
2023-03-26T19:33:37.665Z,100.00
2023-03-26T19:36:15.090Z,100.00
2023-03-26T19:38:52.338Z,100.00
2023-03-26T19:41:40.560Z,100.00
2023-03-26T19:44:26.590Z,100.00
2023-03-26T19:47:02.728Z,100.00
2023-03-26T19:49:29.651Z,100.00
2023-03-26T19:52:13.142Z,100.00
2023-03-26T19:55:12.233Z,100.00
2023-03-26T19:57:39.836Z,100.00
2023-03-26T20:00:15.178Z,100.00
2023-03-26T20:02:43.076Z,100.00
2023-03-26T20:05:22.974Z,100.00
2023-03-26T20:07:51.800Z,100.00
2023-03-26T20:10:19.335Z,100.00
2023-03-26T20:12:47.337Z,100.00
2023-03-26T20:15:25.481Z,100.00
2023-03-26T20:17:53.773Z,100.00
2023-03-26T20:20:27.638Z,100.00
2023-03-26T20:22:59.010Z,100.00
2023-03-26T20:25:32.767Z,100.00
2023-03-26T20:28:01.081Z,100.00
2023-03-26T20:33:12.457Z,100.00
2023-03-26T20:35:41.904Z,100.00
2023-03-26T20:38:10.571Z,100.00
2023-03-26T20:40:38.358Z,100.00
2023-03-26T20:43:10.514Z,100.00
2023-03-26T20:45:38.654Z,100.00
2023-03-26T20:48:07.158Z,100.00
2023-03-26T20:50:35.969Z,100.00
2023-03-26T20:53:06.527Z,100.00
2023-03-26T20:55:36.965Z,100.00
2023-03-26T20:58:04.644Z,100.00
2023-03-26T21:00:32.498Z,100.00
2023-03-26T21:03:00.479Z,100.00
2023-03-26T21:05:29.260Z,100.00
2023-03-26T21:08:01.628Z,100.00
2023-03-26T21:10:30.684Z,100.00
2023-03-26T21:13:08.371Z,100.00
2023-03-26T21:15:37.608Z,100.00
2023-03-26T21:18:05.877Z,100.00
2023-03-26T21:20:37.857Z,100.00
2023-03-26T21:23:13.301Z,100.00
2023-03-26T21:25:53.251Z,100.00
2023-03-26T21:28:41.901Z,100.00
2023-03-26T21:31:36.654Z,100.00
2023-03-26T21:34:05.937Z,100.00
2023-03-26T21:36:35.738Z,100.00
2023-03-26T21:39:09.029Z,100.00
2023-03-26T21:41:47.534Z,100.00
2023-03-26T21:44:16.994Z,100.00
2023-03-26T21:46:44.776Z,100.00
2023-03-26T21:49:14.356Z,100.00
2023-03-26T21:51:44.001Z,100.00
2023-03-26T21:54:26.378Z,100.00
2023-03-26T21:57:03.778Z,100.00
2023-03-26T21:59:36.769Z,100.00
2023-03-26T22:02:08.326Z,100.00
2023-03-26T22:04:48.524Z,100.00
2023-03-26T22:07:39.531Z,100.00
2023-03-26T22:10:08.853Z,100.00
2023-03-26T22:12:36.673Z,100.00
2023-03-26T22:15:04.845Z,100.00
2023-03-26T22:17:32.843Z,100.00
2023-03-26T22:20:01.631Z,100.00
2023-03-26T22:22:29.748Z,100.00
2023-03-26T22:24:57.896Z,100.00
2023-03-26T22:27:26.009Z,100.00
2023-03-26T22:29:54.450Z,100.00
2023-03-26T22:32:33.163Z,100.00
2023-03-26T22:35:01.093Z,100.00
2023-03-26T22:37:28.848Z,100.00
2023-03-26T22:39:58.584Z,100.00
2023-03-26T22:42:26.798Z,100.00
2023-03-26T22:44:55.298Z,100.00
2023-03-26T22:47:23.650Z,100.00
2023-03-26T22:49:51.662Z,100.00
2023-03-26T22:52:19.865Z,100.00
2023-03-26T22:54:48.030Z,100.00
2023-03-26T22:57:16.537Z,100.00
2023-03-26T22:59:44.925Z,100.00
2023-03-26T23:02:13.204Z,100.00
2023-03-26T23:04:42.636Z,100.00
2023-03-26T23:07:10.778Z,100.00
2023-03-26T23:09:38.518Z,100.00
2023-03-26T23:12:07.028Z,100.00
2023-03-26T23:14:34.945Z,100.00
2023-03-26T23:17:02.657Z,100.00
2023-03-26T23:19:30.682Z,100.00
2023-03-26T23:21:58.855Z,100.00
2023-03-26T23:24:26.646Z,100.00
2023-03-26T23:26:54.753Z,100.00
2023-03-26T23:29:22.835Z,100.00
2023-03-26T23:31:52.989Z,100.00
2023-03-26T23:34:22.270Z,100.00
2023-03-26T23:36:50.425Z,100.00
2023-03-26T23:39:18.815Z,100.00
2023-03-26T23:41:46.978Z,100.00
2023-03-26T23:44:17.158Z,100.00
2023-03-26T23:46:45.391Z,100.00
2023-03-26T23:49:13.732Z,100.00
2023-03-26T23:51:42.299Z,100.00
2023-03-26T23:54:11.684Z,100.00
2023-03-26T23:56:39.700Z,100.00
2023-03-26T23:59:07.501Z,100.00
